Time;durP1;ratioP1;P1;durP2;ratioP2;P2;SDS_P1;SDS_P2;PMS_P1;PMS_P2;Temp;Humidity;BMP_temperature;BMP_pressure;BME280_temperature;BME280_humidity;BME280_pressure;Samples;Min_cycle;Max_cycle;Signal;HPM_P1;HPM_P2
2024/03/04 00:03:48;;;;;;;3.47;1.75;;;;;;;8.92;78.27;100117.53;15753051;28;20036;-50
2024/03/04 00:11:23;;;;;;;1.40;1.30;;;;;;;8.75;77.22;100121.72;15786218;28;20375;-50
2024/03/04 00:19:00;;;;;;;2.63;1.85;;;;;;;8.81;75.59;100112.88;15716951;28;20048;-50
2024/03/04 00:26:35;;;;;;;0.30;0.30;;;;;;;8.72;76.30;100118.66;15784896;28;20407;-52
2024/03/04 00:34:10;;;;;;;1.20;1.10;;;;;;;8.67;76.31;100113.94;15762382;28;20040;-52
2024/03/04 00:41:46;;;;;;;0.15;0.15;;;;;;;8.57;75.93;100119.75;15796504;28;20047;-52
2024/03/04 00:49:23;;;;;;;0.80;0.65;;;;;;;8.43;75.72;100115.50;15754592;28;20076;-52
2024/03/04 00:56:58;;;;;;;0.38;0.38;;;;;;;8.33;76.45;100128.47;15757315;28;20184;-52
2024/03/04 01:04:33;;;;;;;0.80;0.80;;;;;;;8.40;75.56;100134.66;15762797;28;20123;-55
2024/03/04 01:12:08;;;;;;;0.30;0.30;;;;;;;8.40;75.33;100146.16;15795404;28;20040;-52
2024/03/04 01:19:45;;;;;;;0.32;0.32;;;;;;;8.23;76.12;100134.25;15738274;28;20467;-53
2024/03/04 01:27:21;;;;;;;0.30;0.30;;;;;;;7.82;76.00;100097.13;15766067;28;20477;-52
2024/03/04 01:34:56;;;;;;;0.40;0.40;;;;;;;7.81;76.03;100144.38;15754038;28;20051;-50
2024/03/04 01:42:32;;;;;;;0.82;0.57;;;;;;;7.63;75.61;100142.34;15778513;28;20044;-53
2024/03/04 01:50:10;;;;;;;0.20;0.20;;;;;;;7.49;75.68;100146.03;15764980;28;20069;-50
2024/03/04 01:57:45;;;;;;;0.32;0.22;;;;;;;7.48;75.94;100149.72;15772249;28;20500;-50
2024/03/04 02:05:20;;;;;;;0.35;0.35;;;;;;;7.46;76.04;100150.94;15790395;28;20048;-52
2024/03/04 02:12:56;;;;;;;0.43;0.43;;;;;;;7.41;75.96;100152.41;15773716;28;20044;-51
2024/03/04 02:20:36;;;;;;;1.08;1.08;;;;;;;7.32;75.78;100156.28;15777333;28;20531;-49
2024/03/04 02:28:11;;;;;;;1.95;1.75;;;;;;;7.19;75.86;100156.28;15757946;28;20052;-51
2024/03/04 02:35:49;;;;;;;1.55;1.08;;;;;;;7.13;76.08;100165.06;15758460;28;20048;-52
2024/03/04 02:43:27;;;;;;;1.38;1.17;;;;;;;6.93;76.12;100178.34;15765242;28;20474;-52
2024/03/04 02:51:01;;;;;;;0.30;0.30;;;;;;;6.91;76.20;100188.41;15794267;28;20048;-49
2024/03/04 02:58:36;;;;;;;0.63;0.60;;;;;;;6.84;75.93;100201.72;15786375;28;20048;-54
2024/03/04 03:06:10;;;;;;;0.30;0.30;;;;;;;6.75;76.54;100202.09;15768459;28;20052;-52
2024/03/04 03:13:47;;;;;;;0.63;0.63;;;;;;;6.75;76.19;100207.41;15762590;28;20469;-52
2024/03/04 03:21:21;;;;;;;0.35;0.35;;;;;;;6.71;76.38;100214.97;15762121;28;20041;-52
2024/03/04 03:28:58;;;;;;;0.93;0.90;;;;;;;6.83;76.44;100224.09;15779140;28;20043;-52
2024/03/04 03:36:42;;;;;;;2.40;1.77;;;;;;;6.94;76.21;100229.88;15788070;28;20412;-51
2024/03/04 03:44:17;;;;;;;0.30;0.30;;;;;;;6.86;80.40;100234.38;15788044;28;20298;-50
2024/03/04 03:51:51;;;;;;;2.30;1.75;;;;;;;6.41;86.44;100240.25;15779985;28;20040;-51
2024/03/04 03:59:28;;;;;;;1.55;0.77;;;;;;;6.47;88.65;100242.13;15796776;28;20126;-52
2024/03/04 04:07:03;;;;;;;2.22;2.03;;;;;;;6.94;87.41;100244.03;15776032;28;20044;-52
2024/03/04 04:14:38;;;;;;;1.83;1.73;;;;;;;6.29;90.74;100247.97;15778280;28;20524;-54
2024/03/04 04:22:13;;;;;;;2.63;2.42;;;;;;;6.08;93.02;100254.16;15786488;28;20151;-50
2024/03/04 04:29:49;;;;;;;1.38;1.17;;;;;;;6.11;92.47;100256.47;15756170;28;20055;-48
2024/03/04 04:37:22;;;;;;;0.75;0.47;;;;;;;6.08;92.85;100267.50;15787845;28;20117;-48
2024/03/04 04:44:57;;;;;;;3.95;2.88;;;;;;;6.48;92.46;100257.09;15787986;28;20267;-52
2024/03/04 04:52:32;;;;;;;2.78;2.58;;;;;;;6.08;93.21;100270.97;15754650;28;20113;-48
2024/03/04 05:00:12;;;;;;;1.27;1.17;;;;;;;6.26;93.47;100275.03;15790634;28;20052;-49
2024/03/04 05:08:04;;;;;;;2.17;2.00;;;;;;;6.06;93.14;100278.34;15784716;28;20386;-49
2024/03/04 05:15:42;;;;;;;1.17;1.13;;;;;;;6.45;93.11;100278.84;15772503;28;20472;-49
2024/03/04 05:23:16;;;;;;;3.83;2.67;;;;;;;6.22;93.18;100287.91;15795635;28;20047;-47
2024/03/04 05:30:51;;;;;;;;;;;;;;;6.19;92.04;100292.78;15785476;28;20048;-50
2024/03/04 05:38:24;;;;;;;1.67;1.60;;;;;;;6.00;93.41;100305.75;15760468;28;19966;-51
2024/03/04 05:46:04;;;;;;;2.65;2.20;;;;;;;6.09;93.08;100306.44;15792659;28;20046;-51
2024/03/04 05:53:39;;;;;;;2.25;2.08;;;;;;;5.97;93.32;100314.13;15806382;28;20064;-49
2024/03/04 06:01:19;;;;;;;2.25;1.85;;;;;;;6.32;92.13;100316.88;15797035;28;20044;-54
2024/03/04 06:08:52;;;;;;;1.23;1.13;;;;;;;6.28;91.25;100323.63;15781094;28;20079;-48
2024/03/04 06:16:27;;;;;;;6.00;2.40;;;;;;;6.37;91.21;100335.78;15785943;28;20450;-48
2024/03/04 06:24:02;;;;;;;2.50;1.42;;;;;;;7.04;87.20;100343.25;15774690;28;20070;-48
2024/03/04 06:31:39;;;;;;;9.75;3.67;;;;;;;7.67;84.17;100349.25;15770695;28;20024;-50
2024/03/04 06:39:15;;;;;;;1.90;1.50;;;;;;;7.88;81.75;100358.97;15771202;28;20055;-56
2024/03/04 06:46:50;;;;;;;4.03;3.00;;;;;;;7.79;84.06;100365.53;15784706;28;20396;-47
2024/03/04 06:54:26;;;;;;;1.63;1.52;;;;;;;7.09;88.87;100367.50;15770879;28;20109;-51
2024/03/04 07:02:02;;;;;;;2.30;2.08;;;;;;;7.25;87.47;100373.53;15777012;28;20048;-48
2024/03/04 07:09:37;;;;;;;5.93;3.22;;;;;;;7.12;88.96;100377.75;15763474;28;20471;-53
2024/03/04 07:17:12;;;;;;;2.08;1.85;;;;;;;7.64;86.53;100380.88;15747930;28;20505;-49
2024/03/04 07:24:47;;;;;;;1.27;1.20;;;;;;;8.26;84.24;100387.03;15779567;28;20127;-51
2024/03/04 07:32:22;;;;;;;2.55;1.45;;;;;;;8.74;80.42;100385.00;15763320;28;20505;-49
2024/03/04 07:39:59;;;;;;;2.15;1.98;;;;;;;8.67;80.84;100397.53;15766231;28;20105;-48
2024/03/04 07:47:35;;;;;;;2.00;1.75;;;;;;;8.30;81.50;100367.69;15781896;28;20073;-52
2024/03/04 07:55:11;;;;;;;1.92;1.77;;;;;;;9.62;77.54;100414.88;15788921;28;20040;-52
2024/03/04 08:02:46;;;;;;;5.72;4.13;;;;;;;9.90;75.95;100419.91;15780723;28;20507;-52
2024/03/04 08:10:20;;;;;;;1.35;1.30;;;;;;;10.06;75.14;100415.91;15761123;28;20051;-53
2024/03/04 08:17:56;;;;;;;2.67;2.30;;;;;;;10.33;74.46;100439.94;15774976;28;20127;-51
2024/03/04 08:25:29;;;;;;;7.53;4.07;;;;;;;10.89;72.56;100445.31;15778968;28;20044;-50
2024/03/04 08:33:10;;;;;;;2.80;2.05;;;;;;;10.10;74.16;100460.03;15755908;28;20051;-52
2024/03/04 08:40:47;;;;;;;6.68;5.25;;;;;;;9.71;76.04;100469.91;15754035;28;20066;-51
2024/03/04 08:48:23;;;;;;;7.13;2.05;;;;;;;10.31;75.16;100471.53;15740061;28;20040;-53
2024/03/04 08:55:58;;;;;;;1.92;1.80;;;;;;;9.75;76.70;100472.97;15762215;28;20044;-50
2024/03/04 09:03:33;;;;;;;9.95;2.42;;;;;;;10.03;76.63;100475.34;15786406;28;20451;-50
2024/03/04 09:11:07;;;;;;;9.23;3.80;;;;;;;10.15;75.38;100479.00;15786639;28;20048;-53
2024/03/04 09:18:44;;;;;;;1.75;1.65;;;;;;;11.52;71.14;100479.25;15780805;28;20223;-51
2024/03/04 09:26:18;;;;;;;1.05;1.00;;;;;;;11.21;72.14;100480.16;15750003;28;20051;-52
2024/03/04 09:33:53;;;;;;;0.93;0.93;;;;;;;10.55;74.00;100480.69;15789289;28;20450;-51
2024/03/04 09:41:30;;;;;;;1.80;1.70;;;;;;;11.22;72.12;100493.34;15780284;28;20424;-51
2024/03/04 09:49:08;;;;;;;4.13;1.75;;;;;;;10.48;74.61;100499.47;15778001;28;20044;-52
2024/03/04 09:56:41;;;;;;;3.47;3.00;;;;;;;11.65;71.16;100508.66;15776353;28;20309;-52
2024/03/04 10:04:19;;;;;;;3.55;3.25;;;;;;;14.71;61.27;100504.47;15794353;28;20501;-52
2024/03/04 10:11:58;;;;;;;13.55;3.95;;;;;;;14.54;59.59;100513.34;15763041;28;20123;-52
2024/03/04 10:19:33;;;;;;;3.13;2.22;;;;;;;14.77;58.71;100506.19;15812604;22;20044;-47
2024/03/04 10:27:10;;;;;;;2.88;2.53;;;;;;;15.49;56.67;100508.97;15847336;28;20044;-48
2024/03/04 10:34:46;;;;;;;4.40;1.63;;;;;;;14.67;58.24;100516.81;15777123;28;20048;-48
2024/03/04 10:42:20;;;;;;;4.13;2.80;;;;;;;15.24;56.79;100511.28;15806300;28;20135;-50
2024/03/04 10:49:58;;;;;;;7.63;2.22;;;;;;;16.61;52.68;100520.41;15830065;28;20055;-50
2024/03/04 10:57:35;;;;;;;2.30;2.17;;;;;;;16.40;52.63;100505.00;15821537;28;20063;-52
2024/03/04 11:05:11;;;;;;;3.30;2.97;;;;;;;17.91;49.56;100513.84;15818846;28;20411;-51
2024/03/04 11:12:54;;;;;;;7.22;3.78;;;;;;;18.09;50.37;100516.09;15825443;28;20147;-51
2024/03/04 11:20:30;;;;;;;2.33;2.13;;;;;;;17.43;50.41;100518.41;15819430;28;20048;-49
2024/03/04 11:28:05;;;;;;;3.40;2.00;;;;;;;16.63;50.55;100520.97;15822104;28;20516;-48
2024/03/04 11:35:40;;;;;;;3.88;2.63;;;;;;;17.81;49.39;100518.16;15813896;28;20036;-50
2024/03/04 11:43:41;;;;;;;5.72;3.00;;;;;;;18.86;47.42;100514.41;15839147;28;20449;-46
2024/03/04 11:51:56;;;;;;;3.25;2.88;;;;;;;17.56;49.85;100523.38;15807052;28;20093;-49
2024/03/04 11:59:30;;;;;;;3.10;1.90;;;;;;;17.10;49.90;100525.75;15813667;28;20531;-49
2024/03/04 12:07:06;;;;;;;2.30;1.98;;;;;;;16.90;51.01;100521.00;15830380;28;20503;-49
2024/03/04 12:14:39;;;;;;;5.20;3.30;;;;;;;17.07;49.76;100520.88;15821180;28;20043;-47
2024/03/04 12:22:16;;;;;;;6.72;2.72;;;;;;;17.49;50.12;100510.06;15771990;28;20045;-51
2024/03/04 12:29:49;;;;;;;13.45;3.85;;;;;;;16.44;52.68;100520.50;15746228;28;20079;-49
2024/03/04 12:37:24;;;;;;;7.45;2.40;;;;;;;16.92;51.82;100526.97;15745950;28;20053;-52
2024/03/04 12:45:01;;;;;;;2.17;1.60;;;;;;;17.11;49.52;100530.09;15729576;28;20529;-50
2024/03/04 12:52:37;;;;;;;3.72;2.55;;;;;;;18.01;48.41;100531.00;15738771;28;20128;-49
2024/03/04 13:00:13;;;;;;;13.05;3.95;;;;;;;17.15;49.12;100539.38;15731182;28;20048;-49
2024/03/04 13:07:48;;;;;;;6.90;3.42;;;;;;;16.03;52.01;100546.28;15763803;28;20040;-49
2024/03/04 13:15:22;;;;;;;2.65;2.17;;;;;;;15.94;51.85;100543.19;15782397;28;20141;-50
2024/03/04 13:22:58;;;;;;;2.83;1.70;;;;;;;17.18;49.24;100538.84;15775647;28;20036;-46
2024/03/04 13:30:32;;;;;;;7.28;2.25;;;;;;;16.62;50.68;100532.06;15783645;28;20102;-47
2024/03/04 13:38:07;;;;;;;1.98;1.52;;;;;;;15.84;52.10;100529.50;15783052;28;20040;-47
2024/03/04 13:45:41;;;;;;;9.10;3.55;;;;;;;14.50;55.90;100530.28;15768562;28;20071;-49
2024/03/04 13:53:17;;;;;;;5.70;2.13;;;;;;;14.17;57.00;100534.47;15756045;28;20170;-51
2024/03/04 14:00:50;;;;;;;2.67;2.45;;;;;;;14.24;56.90;100523.53;15773653;28;20044;-48
2024/03/04 14:08:25;;;;;;;1.27;1.20;;;;;;;14.01;57.09;100529.81;15762634;28;20060;-51
2024/03/04 14:15:59;;;;;;;3.72;2.38;;;;;;;14.30;56.78;100530.69;15781276;28;20124;-50
2024/03/04 14:23:33;;;;;;;3.97;2.22;;;;;;;14.17;57.01;100530.94;15759946;28;20044;-50
2024/03/04 14:31:08;;;;;;;2.70;2.50;;;;;;;14.50;56.43;100531.13;15765030;28;20135;-48
2024/03/04 14:38:43;;;;;;;2.80;2.60;;;;;;;14.15;57.94;100531.19;15756678;28;20045;-51
2024/03/04 14:46:17;;;;;;;2.85;1.60;;;;;;;14.22;58.24;100528.34;15742230;28;20089;-56
2024/03/04 14:53:52;;;;;;;0.73;0.73;;;;;;;13.85;59.63;100533.22;15779324;28;20580;-54
2024/03/04 15:01:32;;;;;;;4.65;2.78;;;;;;;13.28;61.11;100550.00;15775209;28;20048;-48
2024/03/04 15:09:11;;;;;;;3.35;3.05;;;;;;;12.70;62.34;100559.56;15761433;28;20147;-50
2024/03/04 15:16:49;;;;;;;3.13;2.53;;;;;;;12.36;62.89;100560.25;15765948;27;20048;-48
2024/03/04 15:24:26;;;;;;;2.42;2.22;;;;;;;12.12;64.31;100570.03;15818725;28;20113;-46
2024/03/04 15:32:01;;;;;;;1.38;1.27;;;;;;;11.97;64.39;100575.78;15810185;28;20058;-46
2024/03/04 15:39:39;;;;;;;1.48;0.77;;;;;;;11.91;64.39;100579.38;15834779;28;20327;-49
2024/03/04 15:47:13;;;;;;;5.18;3.25;;;;;;;11.98;64.39;100575.59;15818873;28;20048;-47
2024/03/04 15:54:49;;;;;;;2.67;1.88;;;;;;;12.04;64.47;100581.94;15798675;28;20345;-45
2024/03/04 16:02:24;;;;;;;6.40;3.55;;;;;;;13.03;61.58;100588.72;15825389;28;20390;-45
2024/03/04 16:09:59;;;;;;;5.60;2.80;;;;;;;12.70;62.51;100599.97;15823264;28;20097;-49
2024/03/04 16:17:34;;;;;;;2.00;1.90;;;;;;;12.28;63.77;100595.53;15820071;28;20094;-48
2024/03/04 16:25:09;;;;;;;3.80;1.85;;;;;;;12.38;63.15;100603.91;15837459;28;20048;-50
2024/03/04 16:32:45;;;;;;;9.82;3.55;;;;;;;12.59;62.95;100607.97;15841498;28;20077;-47
2024/03/04 16:40:21;;;;;;;2.55;2.35;;;;;;;12.61;62.40;100613.97;15798844;28;20700;-49
2024/03/04 16:47:55;;;;;;;0.90;0.90;;;;;;;12.36;62.85;100624.84;15790758;28;20156;-50
2024/03/04 16:55:31;;;;;;;9.85;2.95;;;;;;;11.93;64.55;100625.69;15826973;28;20070;-51
2024/03/04 17:03:06;;;;;;;3.42;3.10;;;;;;;12.29;62.98;100642.94;15834496;28;20729;-50
2024/03/04 17:10:42;;;;;;;3.15;2.75;;;;;;;12.46;62.16;100644.81;15841016;28;20043;-49
2024/03/04 17:18:15;;;;;;;1.70;1.25;;;;;;;11.95;63.32;100645.97;15815197;28;20047;-50
2024/03/04 17:25:50;;;;;;;;;;;;;;;11.88;63.64;100642.50;15771716;28;20489;-50
2024/03/04 17:33:23;;;;;;;1.02;1.00;;;;;;;11.82;64.00;100655.97;15763260;28;19991;-50
2024/03/04 17:40:58;;;;;;;1.90;1.80;;;;;;;11.62;64.70;100665.03;15737156;28;20058;-51
2024/03/04 17:48:33;;;;;;;3.92;2.72;;;;;;;11.23;65.92;100671.50;15765768;28;20067;-49
2024/03/04 17:56:09;;;;;;;0.40;0.40;;;;;;;11.22;66.23;100670.69;15776039;28;20408;-49
2024/03/04 18:03:44;;;;;;;2.70;2.42;;;;;;;11.37;66.58;100681.13;15773869;28;20136;-49
2024/03/04 18:11:22;;;;;;;2.50;2.28;;;;;;;11.01;67.69;100689.81;15794482;28;20055;-54
2024/03/04 18:18:57;;;;;;;4.40;2.53;;;;;;;11.16;66.73;100690.34;15816564;28;20048;-51
2024/03/04 18:26:32;;;;;;;1.35;0.98;;;;;;;11.04;67.11;100696.63;15830729;28;20044;-55
2024/03/04 18:34:06;;;;;;;1.05;1.05;;;;;;;10.96;67.34;100692.34;15849938;28;20052;-49
2024/03/04 18:41:41;;;;;;;2.92;1.88;;;;;;;10.82;67.75;100694.25;15865329;28;20120;-52
2024/03/04 18:49:15;;;;;;;0.98;0.77;;;;;;;10.56;69.77;100695.16;15813511;28;20142;-54
2024/03/04 18:56:50;;;;;;;2.05;1.85;;;;;;;10.28;72.45;100711.53;15807830;28;20432;-51
2024/03/04 19:04:24;;;;;;;6.15;2.10;;;;;;;10.38;71.73;100708.41;15796902;28;20461;-52
2024/03/04 19:11:59;;;;;;;6.63;1.48;;;;;;;10.96;70.16;100709.28;15838127;28;20051;-51
2024/03/04 19:19:33;;;;;;;3.45;1.75;;;;;;;10.89;69.82;100721.88;15809453;28;20530;-51
2024/03/04 19:27:09;;;;;;;5.97;2.05;;;;;;;10.55;70.30;100720.34;15742672;28;20068;-50
2024/03/04 19:34:43;;;;;;;5.88;1.88;;;;;;;10.77;69.47;100730.81;15784588;28;20283;-54
2024/03/04 19:42:20;;;;;;;1.60;0.90;;;;;;;10.67;69.30;100729.38;15773657;28;20040;-45
2024/03/04 19:49:55;;;;;;;2.13;1.92;;;;;;;10.64;69.90;100732.50;15756694;28;20126;-48
2024/03/04 19:57:30;;;;;;;2.40;1.85;;;;;;;10.58;70.06;100737.88;15760297;28;20059;-51
2024/03/04 20:05:05;;;;;;;4.43;1.13;;;;;;;10.56;70.09;100746.16;15717591;28;20485;-49
2024/03/04 20:12:40;;;;;;;0.95;0.88;;;;;;;10.66;70.04;100745.72;15762936;28;20130;-50
2024/03/04 20:20:15;;;;;;;0.57;0.57;;;;;;;10.50;69.92;100747.00;15752137;28;20493;-51
2024/03/04 20:27:49;;;;;;;0.93;0.93;;;;;;;10.66;69.75;100745.72;15749788;28;20131;-51
2024/03/04 20:35:26;;;;;;;3.28;2.90;;;;;;;11.05;68.54;100750.13;15756811;28;20421;-51
2024/03/04 20:43:01;;;;;;;2.65;1.52;;;;;;;11.03;68.46;100760.25;15749127;28;20151;-52
2024/03/04 20:50:35;;;;;;;1.95;1.40;;;;;;;11.43;67.25;100758.22;15759428;28;20185;-49
2024/03/04 20:58:11;;;;;;;1.48;0.28;;;;;;;11.18;67.80;100768.88;15764639;28;20064;-54
2024/03/04 21:05:49;;;;;;;5.47;1.30;;;;;;;11.27;67.63;100774.00;15741246;28;20040;-53
2024/03/04 21:13:28;;;;;;;1.75;1.55;;;;;;;10.58;70.04;100778.13;15750306;28;20465;-48
2024/03/04 21:21:03;;;;;;;6.15;1.65;;;;;;;10.13;71.89;100781.47;15780959;28;20139;-48
2024/03/04 21:28:39;;;;;;;2.28;2.13;;;;;;;10.32;71.29;100779.00;15776684;28;20048;-51
2024/03/04 21:36:13;;;;;;;2.63;2.42;;;;;;;10.28;71.66;100791.19;15783378;28;20048;-50
2024/03/04 21:43:48;;;;;;;1.38;1.27;;;;;;;10.39;71.33;100787.88;15746205;28;20039;-52
2024/03/04 21:51:23;;;;;;;4.00;2.72;;;;;;;10.26;71.62;100793.22;15760230;28;20048;-49
2024/03/04 21:58:58;;;;;;;1.35;1.20;;;;;;;9.95;72.46;100798.16;15749255;28;20040;-50
2024/03/04 22:06:31;;;;;;;3.47;2.00;;;;;;;10.06;71.98;100801.25;15759529;28;20326;-49
2024/03/04 22:14:06;;;;;;;4.55;2.13;;;;;;;10.57;70.29;100793.41;15781082;28;20464;-51
2024/03/04 22:21:40;;;;;;;1.65;1.23;;;;;;;10.67;69.91;100793.81;15822543;22;20075;-47
2024/03/04 22:29:15;;;;;;;1.42;1.25;;;;;;;10.43;70.81;100797.16;15856054;28;20056;-50
2024/03/04 22:36:49;;;;;;;1.33;1.23;;;;;;;9.77;73.20;100803.28;15811884;28;20330;-51
2024/03/04 22:44:24;;;;;;;1.17;1.08;;;;;;;9.88;72.04;100804.53;15825543;28;20457;-49
2024/03/04 22:51:57;;;;;;;0.63;0.63;;;;;;;9.50;72.64;100814.97;15839499;28;20058;-50
2024/03/04 22:59:33;;;;;;;1.98;1.85;;;;;;;10.10;70.25;100814.03;15835560;28;20055;-51
2024/03/04 23:07:06;;;;;;;0.85;0.85;;;;;;;9.53;71.78;100812.72;15803382;28;20344;-50
2024/03/04 23:14:42;;;;;;;0.75;0.75;;;;;;;9.61;71.28;100817.91;15832723;28;20469;-49
2024/03/04 23:22:17;;;;;;;1.58;1.30;;;;;;;9.62;70.88;100822.22;15832285;28;20104;-47
2024/03/04 23:29:52;;;;;;;1.85;1.70;;;;;;;9.79;69.93;100838.78;15849021;28;20043;-47
2024/03/04 23:37:26;;;;;;;2.03;1.77;;;;;;;9.40;71.78;100851.00;15822371;28;20516;-49
2024/03/04 23:45:01;;;;;;;1.38;1.30;;;;;;;9.42;71.13;100850.81;15827662;28;20048;-49
2024/03/04 23:52:36;;;;;;;11.32;2.90;;;;;;;9.85;69.44;100846.00;15812212;28;20512;-49
